createdAt,value
2022-08-17T00:02:26.093Z,53.80
2022-08-17T00:04:54.322Z,53.80
2022-08-17T00:07:21.568Z,54.00
2022-08-17T00:09:48.420Z,54.20
2022-08-17T00:12:43.683Z,54.10
2022-08-17T00:15:02.385Z,54.20
2022-08-17T00:17:29.142Z,54.30
2022-08-17T00:19:56.209Z,54.30
2022-08-17T00:22:31.975Z,54.30
2022-08-17T00:25:05.241Z,54.40
2022-08-17T00:27:31.978Z,54.40
2022-08-17T00:29:58.881Z,54.60
2022-08-17T00:33:15.411Z,54.60
2022-08-17T00:35:15.052Z,54.70
2022-08-17T00:37:41.985Z,54.80
2022-08-17T00:40:13.062Z,54.80
2022-08-17T00:42:40.255Z,54.90
2022-08-17T00:45:09.756Z,55.00
2022-08-17T00:47:36.575Z,55.10
2022-08-17T00:50:05.621Z,55.20
2022-08-17T00:52:39.007Z,55.30
2022-08-17T00:55:08.512Z,55.40
2022-08-17T00:57:53.339Z,55.50
2022-08-17T01:00:33.162Z,55.60
2022-08-17T01:03:08.085Z,55.60
2022-08-17T01:05:38.718Z,55.60
2022-08-17T01:08:13.370Z,55.70
2022-08-17T01:10:59.917Z,55.90
2022-08-17T01:13:40.722Z,55.90
2022-08-17T01:16:41.353Z,56.00
2022-08-17T01:19:25.220Z,56.10
2022-08-17T01:22:05.631Z,56.10
2022-08-17T01:24:34.123Z,56.10
2022-08-17T01:27:02.025Z,56.20
2022-08-17T01:29:30.877Z,56.30
2022-08-17T01:32:01.362Z,56.40
2022-08-17T01:34:42.319Z,56.40
2022-08-17T01:37:13.099Z,56.50
2022-08-17T01:39:48.750Z,56.50
2022-08-17T01:42:34.483Z,56.50
2022-08-17T01:45:09.331Z,56.60
2022-08-17T01:47:37.459Z,56.60
2022-08-17T01:50:15.718Z,56.70
2022-08-17T01:52:47.747Z,56.80
2022-08-17T01:55:17.432Z,56.90
2022-08-17T01:57:45.497Z,56.80
2022-08-17T02:00:13.494Z,57.00
2022-08-17T02:02:40.907Z,57.10
2022-08-17T02:05:07.943Z,57.20
2022-08-17T02:07:59.365Z,57.10
2022-08-17T02:10:23.658Z,57.10
2022-08-17T02:12:50.562Z,57.20
2022-08-17T02:15:17.500Z,57.10
2022-08-17T02:17:44.909Z,57.20
2022-08-17T02:20:11.807Z,57.30
2022-08-17T02:22:40.966Z,57.40
2022-08-17T02:25:09.898Z,57.40
2022-08-17T02:27:38.629Z,57.30
2022-08-17T02:31:02.146Z,57.50
2022-08-17T02:32:57.592Z,57.60
2022-08-17T02:35:24.401Z,57.60
2022-08-17T02:37:51.908Z,57.70
2022-08-17T02:40:35.025Z,57.70
2022-08-17T02:43:04.117Z,57.80
2022-08-17T02:45:30.826Z,58.40
2022-08-17T02:47:57.583Z,57.80
2022-08-17T02:50:25.307Z,58.00
2022-08-17T02:53:02.320Z,58.00
2022-08-17T02:55:35.401Z,58.10
2022-08-17T02:58:03.583Z,58.90
2022-08-17T03:00:43.903Z,58.40
2022-08-17T03:03:13.553Z,58.50
2022-08-17T03:05:40.610Z,58.50
2022-08-17T03:08:10.462Z,58.50
2022-08-17T03:10:40.636Z,58.70
2022-08-17T03:13:07.532Z,58.80
2022-08-17T03:15:34.994Z,58.70
2022-08-17T03:18:02.289Z,58.80
2022-08-17T03:20:31.590Z,58.70
2022-08-17T03:23:02.036Z,58.80
2022-08-17T03:25:44.050Z,58.70
2022-08-17T03:28:14.586Z,58.80
2022-08-17T03:30:41.729Z,58.80
2022-08-17T03:33:12.720Z,58.80
2022-08-17T03:35:40.550Z,58.80
2022-08-17T03:38:10.381Z,58.90
2022-08-17T03:40:56.853Z,58.90
2022-08-17T03:43:26.124Z,59.00
2022-08-17T03:46:33.917Z,59.00
2022-08-17T03:49:17.213Z,59.10
2022-08-17T03:52:02.370Z,59.10
2022-08-17T03:54:47.719Z,59.10
2022-08-17T03:57:14.497Z,59.20
2022-08-17T03:59:41.403Z,59.20
2022-08-17T04:02:12.892Z,59.10
2022-08-17T04:04:39.951Z,59.20
2022-08-17T04:07:07.337Z,59.10
2022-08-17T04:09:34.429Z,59.20
2022-08-17T04:12:04.922Z,59.10
2022-08-17T04:14:47.748Z,59.90
2022-08-17T04:17:22.694Z,59.30
2022-08-17T04:19:49.399Z,59.40
2022-08-17T04:22:31.730Z,59.50
2022-08-17T04:25:16.623Z,59.50
2022-08-17T04:27:43.433Z,59.60
2022-08-17T04:30:12.126Z,59.60
2022-08-17T04:33:07.374Z,59.60
2022-08-17T04:35:58.970Z,59.70
2022-08-17T04:38:28.774Z,59.70
2022-08-17T04:41:15.995Z,59.80
2022-08-17T04:43:45.079Z,59.80
2022-08-17T04:46:14.713Z,59.90
2022-08-17T04:48:44.236Z,59.80
2022-08-17T04:51:13.198Z,59.90
2022-08-17T04:53:42.057Z,59.90
2022-08-17T04:56:16.001Z,60.00
2022-08-17T04:58:46.254Z,60.00
2022-08-17T05:01:13.456Z,60.00
2022-08-17T05:03:41.130Z,60.10
2022-08-17T05:06:08.186Z,60.10
2022-08-17T05:08:35.418Z,60.20
2022-08-17T05:11:02.153Z,60.30
2022-08-17T05:13:32.265Z,60.30
2022-08-17T05:16:01.412Z,60.30
2022-08-17T05:18:30.064Z,60.20
2022-08-17T05:20:57.200Z,60.20
2022-08-17T05:23:26.368Z,60.30
2022-08-17T05:25:55.569Z,60.40
2022-08-17T05:28:27.634Z,60.50
2022-08-17T05:30:59.153Z,60.60
2022-08-17T05:33:29.949Z,60.80
2022-08-17T05:35:58.567Z,61.00
2022-08-17T05:38:27.022Z,61.10
2022-08-17T05:40:54.499Z,61.30
2022-08-17T05:43:27.876Z,61.50
2022-08-17T05:46:02.019Z,61.40
2022-08-17T05:48:35.688Z,61.40
2022-08-17T05:51:22.472Z,61.40
2022-08-17T05:54:09.461Z,61.40
2022-08-17T05:56:48.431Z,61.40
2022-08-17T05:59:22.589Z,61.60
2022-08-17T06:02:06.585Z,61.80
2022-08-17T06:04:52.077Z,61.90
2022-08-17T06:07:29.184Z,61.80
2022-08-17T06:10:18.376Z,61.70
2022-08-17T06:12:59.143Z,61.70
2022-08-17T06:15:50.560Z,61.50
2022-08-17T06:18:20.166Z,61.30
2022-08-17T06:21:15.515Z,61.40
2022-08-17T06:23:50.183Z,61.40
2022-08-17T06:26:27.501Z,61.50
2022-08-17T06:29:37.038Z,61.50
2022-08-17T06:32:08.385Z,61.30
2022-08-17T06:34:37.412Z,60.90
2022-08-17T06:37:21.114Z,60.70
2022-08-17T06:40:35.878Z,60.40
2022-08-17T06:43:21.218Z,60.20
2022-08-17T06:46:01.649Z,60.40
2022-08-17T06:48:45.219Z,60.30
2022-08-17T06:51:29.235Z,60.30
2022-08-17T06:54:11.151Z,60.40
2022-08-17T06:57:18.352Z,60.30
2022-08-17T06:59:59.061Z,60.10
2022-08-17T07:02:52.351Z,60.10
2022-08-17T07:05:24.564Z,60.00
2022-08-17T07:08:02.171Z,60.20
2022-08-17T07:10:46.920Z,60.20
2022-08-17T07:13:51.241Z,60.10
2022-08-17T07:16:32.394Z,60.10
2022-08-17T07:18:59.899Z,60.00
2022-08-17T07:21:40.896Z,60.00
2022-08-17T07:24:52.444Z,59.70
2022-08-17T07:27:27.417Z,59.50
2022-08-17T07:30:10.849Z,59.50
2022-08-17T07:32:59.127Z,59.40
2022-08-17T07:35:37.567Z,59.20
2022-08-17T07:38:25.530Z,59.00
2022-08-17T07:41:02.609Z,58.90
2022-08-17T07:43:31.544Z,58.80
2022-08-17T07:46:40.589Z,58.60
2022-08-17T07:49:10.363Z,58.60
2022-08-17T07:51:52.633Z,58.60
2022-08-17T07:54:24.209Z,58.60
2022-08-17T07:56:54.143Z,58.50
2022-08-17T07:59:36.294Z,58.30
2022-08-17T08:02:40.292Z,58.20
2022-08-17T08:05:13.144Z,58.10
2022-08-17T08:07:51.035Z,58.20
2022-08-17T08:10:35.932Z,58.00
2022-08-17T08:13:07.636Z,58.00
2022-08-17T08:15:45.266Z,58.00
2022-08-17T08:18:54.369Z,58.50
2022-08-17T08:21:25.112Z,58.30
2022-08-17T08:23:57.821Z,58.00
2022-08-17T08:26:34.832Z,57.80
2022-08-17T08:29:28.317Z,57.60
2022-08-17T08:31:57.853Z,57.30
2022-08-17T08:35:01.397Z,57.30
2022-08-17T08:37:49.773Z,57.10
2022-08-17T08:40:19.781Z,57.10
2022-08-17T08:42:52.703Z,57.30
2022-08-17T08:45:47.460Z,57.30
2022-08-17T08:48:56.627Z,57.00
2022-08-17T08:51:52.312Z,56.80
2022-08-17T08:54:34.818Z,57.00
2022-08-17T08:57:29.396Z,56.80
2022-08-17T09:00:07.266Z,56.80
2022-08-17T09:02:34.818Z,56.60
2022-08-17T09:05:21.321Z,56.90
2022-08-17T09:08:05.468Z,56.50
2022-08-17T09:10:59.715Z,56.60
2022-08-17T09:13:47.102Z,56.50
2022-08-17T09:16:50.499Z,56.30
2022-08-17T09:19:30.249Z,56.10
2022-08-17T09:22:31.782Z,56.10
2022-08-17T09:25:22.080Z,55.70
2022-08-17T09:28:07.403Z,55.60
2022-08-17T09:30:50.561Z,55.30
2022-08-17T09:33:26.201Z,55.40
2022-08-17T09:36:09.948Z,55.50
2022-08-17T09:39:03.842Z,55.20
2022-08-17T09:41:52.787Z,55.40
2022-08-17T09:44:40.260Z,55.30
2022-08-17T09:47:45.410Z,54.70
2022-08-17T09:51:03.747Z,54.10
2022-08-17T09:53:09.274Z,55.00
2022-08-17T09:55:52.701Z,54.90
2022-08-17T09:58:50.355Z,53.40
2022-08-17T10:01:36.507Z,53.60
2022-08-17T10:04:47.692Z,54.00
2022-08-17T10:07:39.817Z,54.10
2022-08-17T10:10:15.598Z,54.10
2022-08-17T10:12:54.448Z,55.20
2022-08-17T10:15:52.257Z,54.80
2022-08-17T10:18:23.419Z,54.60
2022-08-17T10:21:42.811Z,54.60
2022-08-17T10:25:21.197Z,54.10
2022-08-17T10:27:49.246Z,54.10
2022-08-17T10:30:26.561Z,53.80
2022-08-17T10:32:57.557Z,53.50
2022-08-17T10:35:39.411Z,53.30
2022-08-17T10:38:12.552Z,53.10
2022-08-17T10:40:51.728Z,53.20
2022-08-17T10:43:31.013Z,53.40
2022-08-17T10:46:30.297Z,53.90
2022-08-17T10:49:16.895Z,55.00
2022-08-17T10:51:47.830Z,55.20
2022-08-17T10:55:01.784Z,55.50
2022-08-17T10:57:36.970Z,55.80
2022-08-17T11:00:10.311Z,56.00
2022-08-17T11:03:06.194Z,56.00
2022-08-17T11:05:44.021Z,55.90
2022-08-17T11:08:39.077Z,55.90
2022-08-17T11:11:40.034Z,55.90
2022-08-17T11:14:47.909Z,55.90
2022-08-17T11:17:30.974Z,56.00
2022-08-17T11:20:22.495Z,56.10
2022-08-17T11:23:04.087Z,56.10
2022-08-17T11:25:38.307Z,56.30
2022-08-17T11:28:18.355Z,56.50
2022-08-17T11:31:01.559Z,56.40
2022-08-17T11:33:36.833Z,56.40
2022-08-17T11:36:31.593Z,56.30
2022-08-17T11:39:03.105Z,56.10
2022-08-17T11:41:54.408Z,56.10
2022-08-17T11:44:32.260Z,55.90
2022-08-17T11:47:23.480Z,55.80
2022-08-17T11:50:30.831Z,55.80
2022-08-17T11:52:57.622Z,55.60
2022-08-17T11:55:38.205Z,55.40
2022-08-17T11:58:25.940Z,55.20
2022-08-17T12:00:57.782Z,55.20
2022-08-17T12:03:31.557Z,55.10
2022-08-17T12:06:05.843Z,55.10
2022-08-17T12:08:34.525Z,54.90
2022-08-17T12:11:11.611Z,54.90
2022-08-17T12:13:47.241Z,54.60
2022-08-17T12:16:16.653Z,54.60
2022-08-17T12:18:53.874Z,54.60
2022-08-17T12:21:31.083Z,54.40
2022-08-17T12:24:25.436Z,54.30
2022-08-17T12:26:58.926Z,54.00
2022-08-17T12:29:35.930Z,54.00
2022-08-17T12:32:12.838Z,53.90
2022-08-17T12:34:42.571Z,53.80
2022-08-17T12:37:21.380Z,53.80
2022-08-17T12:39:58.567Z,53.60
2022-08-17T12:42:56.386Z,53.60
2022-08-17T12:45:26.906Z,53.30
2022-08-17T12:48:07.690Z,53.30
2022-08-17T12:50:40.548Z,53.20
2022-08-17T12:53:14.224Z,52.90
2022-08-17T12:55:42.979Z,52.70
2022-08-17T12:58:14.475Z,52.70
2022-08-17T13:00:48.532Z,52.60
2022-08-17T13:03:21.637Z,52.50
2022-08-17T13:05:57.656Z,52.60
2022-08-17T13:08:38.385Z,52.40
2022-08-17T13:11:19.348Z,52.50
2022-08-17T13:13:52.364Z,52.50
2022-08-17T13:16:22.216Z,52.50
2022-08-17T13:19:16.293Z,52.30
2022-08-17T13:21:52.069Z,52.10
2022-08-17T13:24:30.473Z,52.20
2022-08-17T13:27:08.435Z,51.90
2022-08-17T13:29:52.828Z,51.60
2022-08-17T13:32:33.492Z,51.30
2022-08-17T13:35:14.303Z,51.10
2022-08-17T13:37:58.448Z,50.70
2022-08-17T13:40:37.706Z,50.20
2022-08-17T13:43:05.383Z,50.00
2022-08-17T13:45:40.489Z,49.80
2022-08-17T13:48:14.052Z,49.20
2022-08-17T13:51:15.480Z,49.30
2022-08-17T13:53:42.366Z,49.00
2022-08-17T13:56:37.183Z,49.20
2022-08-17T13:59:13.036Z,49.20
2022-08-17T14:01:43.574Z,49.20
2022-08-17T14:04:17.738Z,49.10
2022-08-17T14:06:52.367Z,49.20
2022-08-17T14:09:24.174Z,49.40
2022-08-17T14:11:52.907Z,49.40
2022-08-17T14:14:21.687Z,49.50
2022-08-17T14:16:49.003Z,49.40
2022-08-17T14:19:16.113Z,49.40
2022-08-17T14:21:46.349Z,49.40
2022-08-17T14:24:28.570Z,49.20
2022-08-17T14:26:57.456Z,49.20
2022-08-17T14:29:27.728Z,49.10
2022-08-17T14:31:56.358Z,48.90
2022-08-17T14:34:24.374Z,48.90
2022-08-17T14:36:51.884Z,49.00
2022-08-17T14:39:19.475Z,49.00
2022-08-17T14:41:46.717Z,49.00
2022-08-17T14:44:13.765Z,49.00
2022-08-17T14:46:42.976Z,49.00
2022-08-17T14:49:12.174Z,48.90
2022-08-17T14:51:44.100Z,48.80
2022-08-17T14:54:32.595Z,48.70
2022-08-17T14:57:22.184Z,48.70
2022-08-17T14:59:48.846Z,48.70
2022-08-17T15:02:23.142Z,48.90
2022-08-17T15:05:05.942Z,48.90
2022-08-17T15:07:32.791Z,49.00
2022-08-17T15:10:01.336Z,49.20
2022-08-17T15:12:32.770Z,49.20
2022-08-17T15:15:05.413Z,49.30
2022-08-17T15:17:54.703Z,49.40
2022-08-17T15:20:24.619Z,49.40
2022-08-17T15:23:00.821Z,49.40
2022-08-17T15:25:30.373Z,49.50
2022-08-17T15:27:57.666Z,49.60
2022-08-17T15:30:26.435Z,49.60
2022-08-17T15:32:55.577Z,49.70
2022-08-17T15:35:28.097Z,49.70
2022-08-17T15:38:10.552Z,49.70
2022-08-17T15:40:45.520Z,49.70
2022-08-17T15:43:15.651Z,49.80
2022-08-17T15:45:43.213Z,49.80
2022-08-17T15:48:10.355Z,49.80
2022-08-17T15:50:37.547Z,49.80
2022-08-17T15:53:05.010Z,49.70
2022-08-17T15:55:33.106Z,49.70
2022-08-17T15:58:00.641Z,49.70
2022-08-17T16:00:28.525Z,49.80
2022-08-17T16:03:15.265Z,49.90
2022-08-17T16:05:44.139Z,50.10
2022-08-17T16:08:17.096Z,50.20
2022-08-17T16:10:48.748Z,50.20
2022-08-17T16:13:17.496Z,50.20
2022-08-17T16:15:53.051Z,50.30
2022-08-17T16:18:28.191Z,50.30
2022-08-17T16:20:55.283Z,50.30
2022-08-17T16:23:21.968Z,50.40
2022-08-17T16:25:53.157Z,50.50
2022-08-17T16:28:21.733Z,50.60
2022-08-17T16:30:48.474Z,50.70
2022-08-17T16:33:16.599Z,50.70
2022-08-17T16:35:43.339Z,50.80
2022-08-17T16:38:10.926Z,50.80
2022-08-17T16:40:37.890Z,50.70
2022-08-17T16:43:10.235Z,50.60
2022-08-17T16:45:40.363Z,50.70
2022-08-17T16:48:08.768Z,50.70
2022-08-17T16:50:36.612Z,50.70
2022-08-17T16:53:10.406Z,50.70
2022-08-17T16:55:37.999Z,50.70
2022-08-17T16:58:06.605Z,50.30
2022-08-17T17:00:33.745Z,50.30
2022-08-17T17:03:19.506Z,50.30
2022-08-17T17:06:03.609Z,50.70
2022-08-17T17:08:44.372Z,50.90
2022-08-17T17:11:23.219Z,51.10
2022-08-17T17:13:59.927Z,51.50
2022-08-17T17:16:35.961Z,52.20
2022-08-17T17:19:16.094Z,52.80
2022-08-17T17:21:55.916Z,53.20
2022-08-17T17:24:51.510Z,53.90
2022-08-17T17:27:38.998Z,54.20
2022-08-17T17:30:16.635Z,54.00
2022-08-17T17:33:10.082Z,53.70
2022-08-17T17:36:00.142Z,53.50
2022-08-17T17:38:34.352Z,53.20
2022-08-17T17:41:16.017Z,53.30
2022-08-17T17:43:43.400Z,53.20
2022-08-17T17:46:28.521Z,52.80
2022-08-17T17:49:00.304Z,52.90
2022-08-17T17:52:09.043Z,52.70
2022-08-17T17:55:02.308Z,52.60
2022-08-17T17:57:31.874Z,52.80
2022-08-17T18:00:20.635Z,52.90
2022-08-17T18:03:20.853Z,53.10
2022-08-17T18:05:57.268Z,53.10
2022-08-17T18:08:46.404Z,53.30
2022-08-17T18:11:45.080Z,53.40
2022-08-17T18:15:00.282Z,53.50
2022-08-17T18:17:29.518Z,53.50
2022-08-17T18:19:58.312Z,53.70
2022-08-17T18:22:25.913Z,53.90
2022-08-17T18:24:58.833Z,54.40
2022-08-17T18:27:34.675Z,54.60
2022-08-17T18:30:23.567Z,54.70
2022-08-17T18:32:50.571Z,54.80
2022-08-17T18:35:21.447Z,55.00
2022-08-17T18:38:08.559Z,55.10
2022-08-17T18:40:37.577Z,55.30
2022-08-17T18:43:22.870Z,55.60
2022-08-17T18:45:54.674Z,55.90
2022-08-17T18:48:37.845Z,56.00
2022-08-17T18:51:44.005Z,56.00
2022-08-17T18:54:23.984Z,56.20
2022-08-17T18:56:52.499Z,56.20
2022-08-17T18:59:42.153Z,56.30
2022-08-17T19:02:19.442Z,56.30
2022-08-17T19:05:07.863Z,56.40
2022-08-17T19:07:47.308Z,56.40
2022-08-17T19:10:47.007Z,56.50
2022-08-17T19:13:24.111Z,56.70
2022-08-17T19:16:14.601Z,56.70
2022-08-17T19:19:05.418Z,56.80
2022-08-17T19:21:42.389Z,56.90
2022-08-17T19:24:21.188Z,56.90
2022-08-17T19:27:03.271Z,56.90
2022-08-17T19:29:46.792Z,57.60
2022-08-17T19:32:17.244Z,57.20
2022-08-17T19:34:44.575Z,57.20
2022-08-17T19:37:11.202Z,57.20
2022-08-17T19:39:46.826Z,57.10
2022-08-17T19:42:47.214Z,57.20
2022-08-17T19:45:34.538Z,57.30
2022-08-17T19:48:16.485Z,57.30
2022-08-17T19:51:01.591Z,57.40
2022-08-17T19:54:07.157Z,57.50
2022-08-17T19:57:10.381Z,57.60
2022-08-17T20:00:02.743Z,57.80
2022-08-17T20:02:50.125Z,58.10
2022-08-17T20:05:28.380Z,58.20
2022-08-17T20:08:04.028Z,58.40
2022-08-17T20:10:37.319Z,58.50
2022-08-17T20:13:11.266Z,58.70
2022-08-17T20:15:42.472Z,58.80
2022-08-17T20:18:38.009Z,59.00
2022-08-17T20:21:21.608Z,59.10
2022-08-17T20:24:03.625Z,59.30
2022-08-17T20:26:49.084Z,59.50
2022-08-17T20:29:37.252Z,59.70
2022-08-17T20:32:18.780Z,59.80
2022-08-17T20:34:47.847Z,59.90
2022-08-17T20:37:14.718Z,59.80
2022-08-17T20:39:49.636Z,59.90
2022-08-17T20:42:22.700Z,60.10
2022-08-17T20:44:54.336Z,60.30
2022-08-17T20:48:01.157Z,60.30
2022-08-17T20:50:38.638Z,60.60
2022-08-17T20:53:09.967Z,60.60
2022-08-17T20:55:51.843Z,60.90
2022-08-17T20:58:42.263Z,61.00
2022-08-17T21:01:16.087Z,61.20
2022-08-17T21:03:51.288Z,61.20
2022-08-17T21:06:25.600Z,61.30
2022-08-17T21:09:12.849Z,61.20
2022-08-17T21:11:56.766Z,61.20
2022-08-17T21:15:03.374Z,61.20
2022-08-17T21:17:50.185Z,61.20
2022-08-17T21:20:27.011Z,61.20
2022-08-17T21:23:26.421Z,61.00
2022-08-17T21:26:14.509Z,61.20
2022-08-17T21:29:29.964Z,61.30
2022-08-17T21:32:03.814Z,61.50
2022-08-17T21:34:36.811Z,61.60
2022-08-17T21:37:18.900Z,61.70
2022-08-17T21:39:58.584Z,61.90
2022-08-17T21:42:34.383Z,62.10
2022-08-17T21:45:29.764Z,62.10
2022-08-17T21:48:14.807Z,62.30
2022-08-17T21:50:45.713Z,62.80
2022-08-17T21:53:23.807Z,63.80
2022-08-17T21:55:52.914Z,65.20
2022-08-17T21:58:29.115Z,65.10
2022-08-17T22:01:20.020Z,65.40
2022-08-17T22:04:02.072Z,65.50
2022-08-17T22:06:30.673Z,65.40
2022-08-17T22:08:59.822Z,65.20
2022-08-17T22:11:26.654Z,65.10
2022-08-17T22:14:00.722Z,64.90
2022-08-17T22:16:33.080Z,64.80
2022-08-17T22:18:59.916Z,64.70
2022-08-17T22:21:26.812Z,64.80
2022-08-17T22:24:07.275Z,64.70
2022-08-17T22:27:07.450Z,64.70
2022-08-17T22:30:14.240Z,64.70
2022-08-17T22:32:47.508Z,64.70
2022-08-17T22:35:34.527Z,64.80
2022-08-17T22:38:19.704Z,64.90
2022-08-17T22:40:52.760Z,64.90
2022-08-17T22:43:28.849Z,64.90
2022-08-17T22:45:59.458Z,65.20
2022-08-17T22:48:29.272Z,65.20
2022-08-17T22:51:13.455Z,65.20
2022-08-17T22:54:13.066Z,65.30
2022-08-17T22:57:14.356Z,66.30
2022-08-17T22:59:52.126Z,65.30
2022-08-17T23:02:23.480Z,65.40
2022-08-17T23:05:16.605Z,65.50
2022-08-17T23:07:46.609Z,65.70
2022-08-17T23:10:14.706Z,65.90
2022-08-17T23:12:41.684Z,66.10
2022-08-17T23:15:16.709Z,66.30
2022-08-17T23:17:47.160Z,66.30
2022-08-17T23:20:15.731Z,66.30
2022-08-17T23:22:51.952Z,66.30
2022-08-17T23:25:27.987Z,66.40
2022-08-17T23:27:57.210Z,66.50
2022-08-17T23:30:30.501Z,66.50
2022-08-17T23:33:04.614Z,66.60
2022-08-17T23:35:40.540Z,66.70
2022-08-17T23:38:13.699Z,66.70
2022-08-17T23:40:40.929Z,66.80
2022-08-17T23:43:23.974Z,67.00
2022-08-17T23:45:54.123Z,67.00
2022-08-17T23:48:35.307Z,67.00
2022-08-17T23:51:05.979Z,67.10
2022-08-17T23:53:36.457Z,67.10
2022-08-17T23:56:09.423Z,67.30
2022-08-17T23:58:38.732Z,67.20
